sensor_id;sensor_type;location;lat;lon;timestamp;P1;durP1;ratioP1;P2;durP2;ratioP2
70953;SDS011;58618;47.490;8.736;2023-12-20T00:01:19;6.28;;;4.07;;
70953;SDS011;58618;47.490;8.736;2023-12-20T00:04:06;6.63;;;4.20;;
70953;SDS011;58618;47.490;8.736;2023-12-20T00:06:53;9.13;;;4.30;;
70953;SDS011;58618;47.490;8.736;2023-12-20T00:09:41;8.32;;;4.45;;
70953;SDS011;58618;47.490;8.736;2023-12-20T00:12:28;8.57;;;4.78;;
70953;SDS011;58618;47.490;8.736;2023-12-20T00:15:15;7.07;;;4.38;;
70953;SDS011;58618;47.490;8.736;2023-12-20T00:18:04;8.60;;;4.90;;
70953;SDS011;58618;47.490;8.736;2023-12-20T00:20:52;9.90;;;5.10;;
70953;SDS011;58618;47.490;8.736;2023-12-20T00:23:39;7.88;;;4.55;;
70953;SDS011;58618;47.490;8.736;2023-12-20T00:26:27;9.45;;;5.28;;
70953;SDS011;58618;47.490;8.736;2023-12-20T00:29:14;9.23;;;5.25;;
70953;SDS011;58618;47.490;8.736;2023-12-20T00:32:02;9.55;;;5.00;;
70953;SDS011;58618;47.490;8.736;2023-12-20T00:34:51;9.43;;;5.60;;
70953;SDS011;58618;47.490;8.736;2023-12-20T00:37:39;10.18;;;5.47;;
70953;SDS011;58618;47.490;8.736;2023-12-20T00:40:26;10.90;;;6.25;;
70953;SDS011;58618;47.490;8.736;2023-12-20T00:43:13;10.77;;;5.85;;
70953;SDS011;58618;47.490;8.736;2023-12-20T00:46:01;10.07;;;5.82;;
70953;SDS011;58618;47.490;8.736;2023-12-20T00:48:48;10.50;;;5.43;;
70953;SDS011;58618;47.490;8.736;2023-12-20T00:51:37;10.38;;;5.80;;
70953;SDS011;58618;47.490;8.736;2023-12-20T00:54:24;11.10;;;5.72;;
70953;SDS011;58618;47.490;8.736;2023-12-20T00:57:12;10.23;;;5.93;;
70953;SDS011;58618;47.490;8.736;2023-12-20T00:59:59;9.68;;;5.53;;
70953;SDS011;58618;47.490;8.736;2023-12-20T01:02:46;11.43;;;5.40;;
70953;SDS011;58618;47.490;8.736;2023-12-20T01:05:35;12.10;;;4.90;;
70953;SDS011;58618;47.490;8.736;2023-12-20T01:08:24;8.55;;;5.07;;
70953;SDS011;58618;47.490;8.736;2023-12-20T01:11:11;9.20;;;5.22;;
70953;SDS011;58618;47.490;8.736;2023-12-20T01:13:59;9.60;;;5.00;;
70953;SDS011;58618;47.490;8.736;2023-12-20T01:16:46;7.63;;;4.57;;
70953;SDS011;58618;47.490;8.736;2023-12-20T01:19:33;8.55;;;5.13;;
70953;SDS011;58618;47.490;8.736;2023-12-20T01:22:21;8.43;;;4.90;;
70953;SDS011;58618;47.490;8.736;2023-12-20T01:25:09;8.95;;;5.00;;
70953;SDS011;58618;47.490;8.736;2023-12-20T01:27:57;12.82;;;5.60;;
70953;SDS011;58618;47.490;8.736;2023-12-20T01:30:44;10.43;;;4.70;;
70953;SDS011;58618;47.490;8.736;2023-12-20T01:33:32;9.23;;;5.10;;
70953;SDS011;58618;47.490;8.736;2023-12-20T01:36:19;8.68;;;5.47;;
70953;SDS011;58618;47.490;8.736;2023-12-20T01:39:07;8.15;;;5.25;;
70953;SDS011;58618;47.490;8.736;2023-12-20T01:41:55;8.73;;;4.88;;
70953;SDS011;58618;47.490;8.736;2023-12-20T01:44:43;10.23;;;6.10;;
70953;SDS011;58618;47.490;8.736;2023-12-20T01:47:30;9.32;;;5.03;;
70953;SDS011;58618;47.490;8.736;2023-12-20T01:50:17;10.27;;;5.72;;
70953;SDS011;58618;47.490;8.736;2023-12-20T01:53:05;8.60;;;5.30;;
70953;SDS011;58618;47.490;8.736;2023-12-20T01:55:56;8.43;;;5.55;;
70953;SDS011;58618;47.490;8.736;2023-12-20T01:58:46;9.70;;;6.00;;
70953;SDS011;58618;47.490;8.736;2023-12-20T02:01:35;9.95;;;5.78;;
70953;SDS011;58618;47.490;8.736;2023-12-20T02:04:22;9.73;;;5.20;;
70953;SDS011;58618;47.490;8.736;2023-12-20T02:07:10;8.85;;;5.30;;
70953;SDS011;58618;47.490;8.736;2023-12-20T02:09:58;9.40;;;5.68;;
70953;SDS011;58618;47.490;8.736;2023-12-20T02:12:46;9.67;;;5.87;;
70953;SDS011;58618;47.490;8.736;2023-12-20T02:15:34;9.88;;;5.70;;
70953;SDS011;58618;47.490;8.736;2023-12-20T02:18:23;11.35;;;6.13;;
70953;SDS011;58618;47.490;8.736;2023-12-20T02:21:10;10.43;;;6.25;;
70953;SDS011;58618;47.490;8.736;2023-12-20T02:23:59;12.77;;;6.68;;
70953;SDS011;58618;47.490;8.736;2023-12-20T02:26:46;11.37;;;6.87;;
70953;SDS011;58618;47.490;8.736;2023-12-20T02:29:34;10.50;;;6.90;;
70953;SDS011;58618;47.490;8.736;2023-12-20T02:32:22;10.45;;;7.18;;
70953;SDS011;58618;47.490;8.736;2023-12-20T02:35:12;11.27;;;6.95;;
70953;SDS011;58618;47.490;8.736;2023-12-20T02:37:59;10.27;;;6.32;;
70953;SDS011;58618;47.490;8.736;2023-12-20T02:40:48;10.33;;;5.97;;
70953;SDS011;58618;47.490;8.736;2023-12-20T02:43:35;10.65;;;6.53;;
70953;SDS011;58618;47.490;8.736;2023-12-20T02:46:23;11.07;;;6.47;;
70953;SDS011;58618;47.490;8.736;2023-12-20T02:49:10;10.60;;;5.97;;
70953;SDS011;58618;47.490;8.736;2023-12-20T02:51:57;11.85;;;6.18;;
70953;SDS011;58618;47.490;8.736;2023-12-20T02:54:45;9.47;;;6.03;;
70953;SDS011;58618;47.490;8.736;2023-12-20T02:57:33;15.00;;;6.43;;
70953;SDS011;58618;47.490;8.736;2023-12-20T03:00:22;8.40;;;5.57;;
70953;SDS011;58618;47.490;8.736;2023-12-20T03:03:10;10.80;;;6.82;;
70953;SDS011;58618;47.490;8.736;2023-12-20T03:05:57;12.07;;;7.32;;
70953;SDS011;58618;47.490;8.736;2023-12-20T03:08:45;11.97;;;6.77;;
70953;SDS011;58618;47.490;8.736;2023-12-20T03:11:33;11.77;;;7.32;;
70953;SDS011;58618;47.490;8.736;2023-12-20T03:14:21;10.13;;;6.53;;
70953;SDS011;58618;47.490;8.736;2023-12-20T03:17:09;11.07;;;7.18;;
70953;SDS011;58618;47.490;8.736;2023-12-20T03:19:56;13.45;;;7.90;;
70953;SDS011;58618;47.490;8.736;2023-12-20T03:22:44;12.20;;;7.30;;
70953;SDS011;58618;47.490;8.736;2023-12-20T03:25:31;14.05;;;7.68;;
70953;SDS011;58618;47.490;8.736;2023-12-20T03:28:18;13.18;;;8.23;;
70953;SDS011;58618;47.490;8.736;2023-12-20T03:31:07;14.38;;;8.30;;
70953;SDS011;58618;47.490;8.736;2023-12-20T03:33:56;13.35;;;8.05;;
70953;SDS011;58618;47.490;8.736;2023-12-20T03:36:43;14.83;;;8.30;;
70953;SDS011;58618;47.490;8.736;2023-12-20T03:39:33;15.15;;;8.45;;
70953;SDS011;58618;47.490;8.736;2023-12-20T03:42:21;15.25;;;8.85;;
70953;SDS011;58618;47.490;8.736;2023-12-20T03:45:08;15.52;;;9.00;;
70953;SDS011;58618;47.490;8.736;2023-12-20T03:47:57;14.45;;;8.70;;
70953;SDS011;58618;47.490;8.736;2023-12-20T03:50:45;15.13;;;8.90;;
70953;SDS011;58618;47.490;8.736;2023-12-20T03:53:33;14.18;;;8.48;;
70953;SDS011;58618;47.490;8.736;2023-12-20T03:56:20;14.20;;;9.25;;
70953;SDS011;58618;47.490;8.736;2023-12-20T03:59:07;15.15;;;8.65;;
70953;SDS011;58618;47.490;8.736;2023-12-20T04:01:55;17.02;;;9.52;;
70953;SDS011;58618;47.490;8.736;2023-12-20T04:04:43;13.47;;;8.63;;
70953;SDS011;58618;47.490;8.736;2023-12-20T04:07:31;14.95;;;8.90;;
70953;SDS011;58618;47.490;8.736;2023-12-20T04:10:18;17.02;;;9.15;;
70953;SDS011;58618;47.490;8.736;2023-12-20T04:13:05;16.40;;;8.85;;
70953;SDS011;58618;47.490;8.736;2023-12-20T04:15:53;15.98;;;9.43;;
70953;SDS011;58618;47.490;8.736;2023-12-20T04:18:40;16.43;;;9.97;;
70953;SDS011;58618;47.490;8.736;2023-12-20T04:21:29;17.60;;;9.85;;
70953;SDS011;58618;47.490;8.736;2023-12-20T04:24:16;17.02;;;10.18;;
70953;SDS011;58618;47.490;8.736;2023-12-20T04:27:04;17.60;;;10.30;;
70953;SDS011;58618;47.490;8.736;2023-12-20T04:29:51;18.55;;;9.85;;
70953;SDS011;58618;47.490;8.736;2023-12-20T04:32:38;17.13;;;10.07;;
70953;SDS011;58618;47.490;8.736;2023-12-20T04:35:26;15.57;;;9.30;;
70953;SDS011;58618;47.490;8.736;2023-12-20T04:38:15;16.65;;;9.52;;
70953;SDS011;58618;47.490;8.736;2023-12-20T04:41:02;15.52;;;9.10;;
70953;SDS011;58618;47.490;8.736;2023-12-20T04:43:50;15.95;;;9.13;;
70953;SDS011;58618;47.490;8.736;2023-12-20T04:46:37;14.70;;;8.77;;
70953;SDS011;58618;47.490;8.736;2023-12-20T04:49:24;16.38;;;9.48;;
70953;SDS011;58618;47.490;8.736;2023-12-20T04:52:12;14.25;;;8.65;;
70953;SDS011;58618;47.490;8.736;2023-12-20T04:55:01;18.15;;;9.82;;
70953;SDS011;58618;47.490;8.736;2023-12-20T04:57:49;12.80;;;8.98;;
70953;SDS011;58618;47.490;8.736;2023-12-20T05:00:36;14.73;;;8.63;;
70953;SDS011;58618;47.490;8.736;2023-12-20T05:03:24;14.75;;;8.75;;
70953;SDS011;58618;47.490;8.736;2023-12-20T05:06:11;18.23;;;9.95;;
70953;SDS011;58618;47.490;8.736;2023-12-20T05:08:58;14.55;;;8.80;;
70953;SDS011;58618;47.490;8.736;2023-12-20T05:11:47;14.07;;;8.82;;
70953;SDS011;58618;47.490;8.736;2023-12-20T05:14:34;14.53;;;8.50;;
70953;SDS011;58618;47.490;8.736;2023-12-20T05:17:22;14.48;;;9.32;;
70953;SDS011;58618;47.490;8.736;2023-12-20T05:20:09;15.90;;;9.32;;
70953;SDS011;58618;47.490;8.736;2023-12-20T05:22:57;15.30;;;9.07;;
70953;SDS011;58618;47.490;8.736;2023-12-20T05:25:44;13.70;;;8.73;;
70953;SDS011;58618;47.490;8.736;2023-12-20T05:28:33;16.33;;;9.87;;
70953;SDS011;58618;47.490;8.736;2023-12-20T05:31:20;13.30;;;8.55;;
70953;SDS011;58618;47.490;8.736;2023-12-20T05:34:08;15.98;;;9.80;;
70953;SDS011;58618;47.490;8.736;2023-12-20T05:36:55;15.38;;;9.13;;
70953;SDS011;58618;47.490;8.736;2023-12-20T05:39:47;16.00;;;9.57;;
70953;SDS011;58618;47.490;8.736;2023-12-20T05:42:35;15.27;;;8.37;;
70953;SDS011;58618;47.490;8.736;2023-12-20T05:45:24;14.57;;;9.05;;
70953;SDS011;58618;47.490;8.736;2023-12-20T05:48:12;16.20;;;8.55;;
70953;SDS011;58618;47.490;8.736;2023-12-20T05:50:59;17.77;;;8.75;;
70953;SDS011;58618;47.490;8.736;2023-12-20T05:53:46;16.67;;;8.20;;
70953;SDS011;58618;47.490;8.736;2023-12-20T05:56:35;15.33;;;8.80;;
70953;SDS011;58618;47.490;8.736;2023-12-20T05:59:23;15.60;;;8.75;;
70953;SDS011;58618;47.490;8.736;2023-12-20T06:02:11;15.73;;;9.07;;
70953;SDS011;58618;47.490;8.736;2023-12-20T06:04:59;15.30;;;9.18;;
70953;SDS011;58618;47.490;8.736;2023-12-20T06:07:46;16.73;;;9.60;;
70953;SDS011;58618;47.490;8.736;2023-12-20T06:10:34;15.60;;;9.30;;
70953;SDS011;58618;47.490;8.736;2023-12-20T06:13:21;15.85;;;9.27;;
70953;SDS011;58618;47.490;8.736;2023-12-20T06:16:08;15.75;;;9.07;;
70953;SDS011;58618;47.490;8.736;2023-12-20T06:18:57;14.63;;;8.48;;
70953;SDS011;58618;47.490;8.736;2023-12-20T06:21:44;16.30;;;9.65;;
70953;SDS011;58618;47.490;8.736;2023-12-20T06:24:32;14.57;;;8.53;;
70953;SDS011;58618;47.490;8.736;2023-12-20T06:27:20;16.55;;;9.55;;
70953;SDS011;58618;47.490;8.736;2023-12-20T06:30:07;15.60;;;9.95;;
70953;SDS011;58618;47.490;8.736;2023-12-20T06:32:56;16.65;;;8.90;;
70953;SDS011;58618;47.490;8.736;2023-12-20T06:35:45;13.45;;;8.50;;
70953;SDS011;58618;47.490;8.736;2023-12-20T06:38:32;14.07;;;8.57;;
70953;SDS011;58618;47.490;8.736;2023-12-20T06:41:19;13.55;;;8.07;;
70953;SDS011;58618;47.490;8.736;2023-12-20T06:44:07;14.20;;;8.70;;
70953;SDS011;58618;47.490;8.736;2023-12-20T06:46:54;14.40;;;8.32;;
70953;SDS011;58618;47.490;8.736;2023-12-20T06:49:42;14.32;;;8.10;;
70953;SDS011;58618;47.490;8.736;2023-12-20T06:52:30;16.13;;;9.17;;
70953;SDS011;58618;47.490;8.736;2023-12-20T06:55:18;13.70;;;8.05;;
70953;SDS011;58618;47.490;8.736;2023-12-20T06:58:05;14.45;;;8.10;;
70953;SDS011;58618;47.490;8.736;2023-12-20T07:00:53;13.15;;;8.23;;
70953;SDS011;58618;47.490;8.736;2023-12-20T07:03:40;13.35;;;8.00;;
70953;SDS011;58618;47.490;8.736;2023-12-20T07:06:28;14.63;;;8.53;;
70953;SDS011;58618;47.490;8.736;2023-12-20T07:09:17;13.85;;;8.52;;
70953;SDS011;58618;47.490;8.736;2023-12-20T07:12:04;15.07;;;8.60;;
70953;SDS011;58618;47.490;8.736;2023-12-20T07:14:52;14.35;;;8.77;;
70953;SDS011;58618;47.490;8.736;2023-12-20T07:17:39;13.93;;;8.15;;
70953;SDS011;58618;47.490;8.736;2023-12-20T07:20:26;15.30;;;8.27;;
70953;SDS011;58618;47.490;8.736;2023-12-20T07:23:14;15.00;;;8.65;;
70953;SDS011;58618;47.490;8.736;2023-12-20T07:26:03;16.08;;;9.40;;
70953;SDS011;58618;47.490;8.736;2023-12-20T07:28:51;14.90;;;8.95;;
70953;SDS011;58618;47.490;8.736;2023-12-20T07:31:38;16.27;;;8.63;;
70953;SDS011;58618;47.490;8.736;2023-12-20T07:34:25;14.53;;;8.30;;
70953;SDS011;58618;47.490;8.736;2023-12-20T07:37:13;14.07;;;8.18;;
70953;SDS011;58618;47.490;8.736;2023-12-20T07:40:00;12.77;;;8.30;;
70953;SDS011;58618;47.490;8.736;2023-12-20T07:42:50;14.77;;;8.20;;
70953;SDS011;58618;47.490;8.736;2023-12-20T07:45:38;14.38;;;8.48;;
70953;SDS011;58618;47.490;8.736;2023-12-20T07:48:25;12.60;;;7.90;;
70953;SDS011;58618;47.490;8.736;2023-12-20T07:51:12;13.07;;;7.97;;
70953;SDS011;58618;47.490;8.736;2023-12-20T07:54:00;11.90;;;7.85;;
70953;SDS011;58618;47.490;8.736;2023-12-20T07:56:48;13.95;;;8.32;;
70953;SDS011;58618;47.490;8.736;2023-12-20T07:59:37;12.93;;;8.00;;
70953;SDS011;58618;47.490;8.736;2023-12-20T08:02:24;12.60;;;7.90;;
70953;SDS011;58618;47.490;8.736;2023-12-20T08:05:12;12.68;;;7.82;;
70953;SDS011;58618;47.490;8.736;2023-12-20T08:07:59;14.15;;;8.27;;
70953;SDS011;58618;47.490;8.736;2023-12-20T08:10:47;13.20;;;7.53;;
70953;SDS011;58618;47.490;8.736;2023-12-20T08:13:34;11.43;;;7.43;;
70953;SDS011;58618;47.490;8.736;2023-12-20T08:16:23;11.80;;;7.37;;
70953;SDS011;58618;47.490;8.736;2023-12-20T08:19:10;10.38;;;6.70;;
70953;SDS011;58618;47.490;8.736;2023-12-20T08:21:58;11.30;;;6.88;;
70953;SDS011;58618;47.490;8.736;2023-12-20T08:24:45;10.02;;;6.40;;
70953;SDS011;58618;47.490;8.736;2023-12-20T08:27:32;10.77;;;6.35;;
70953;SDS011;58618;47.490;8.736;2023-12-20T08:30:20;9.83;;;5.90;;
70953;SDS011;58618;47.490;8.736;2023-12-20T08:33:09;10.55;;;6.60;;
70953;SDS011;58618;47.490;8.736;2023-12-20T08:35:58;8.65;;;5.85;;
70953;SDS011;58618;47.490;8.736;2023-12-20T08:38:46;8.88;;;5.55;;
70953;SDS011;58618;47.490;8.736;2023-12-20T08:41:34;8.70;;;5.55;;
70953;SDS011;58618;47.490;8.736;2023-12-20T08:44:22;10.50;;;6.27;;
70953;SDS011;58618;47.490;8.736;2023-12-20T08:47:09;9.10;;;6.28;;
70953;SDS011;58618;47.490;8.736;2023-12-20T08:50:00;8.52;;;5.47;;
70953;SDS011;58618;47.490;8.736;2023-12-20T08:52:47;7.85;;;5.28;;
70953;SDS011;58618;47.490;8.736;2023-12-20T08:55:36;8.48;;;6.15;;
70953;SDS011;58618;47.490;8.736;2023-12-20T08:58:23;9.63;;;5.93;;
70953;SDS011;58618;47.490;8.736;2023-12-20T09:01:10;9.18;;;5.90;;
70953;SDS011;58618;47.490;8.736;2023-12-20T09:03:58;10.65;;;6.25;;
70953;SDS011;58618;47.490;8.736;2023-12-20T09:06:46;9.88;;;6.22;;
70953;SDS011;58618;47.490;8.736;2023-12-20T09:09:34;10.02;;;6.30;;
70953;SDS011;58618;47.490;8.736;2023-12-20T09:12:21;10.90;;;6.57;;
70953;SDS011;58618;47.490;8.736;2023-12-20T09:15:09;10.90;;;6.20;;
70953;SDS011;58618;47.490;8.736;2023-12-20T09:17:56;8.27;;;6.13;;
70953;SDS011;58618;47.490;8.736;2023-12-20T09:20:44;9.45;;;5.93;;
70953;SDS011;58618;47.490;8.736;2023-12-20T09:23:33;9.60;;;6.30;;
70953;SDS011;58618;47.490;8.736;2023-12-20T09:26:20;9.33;;;6.23;;
70953;SDS011;58618;47.490;8.736;2023-12-20T09:29:07;8.55;;;5.90;;
70953;SDS011;58618;47.490;8.736;2023-12-20T09:31:56;9.48;;;5.57;;
70953;SDS011;58618;47.490;8.736;2023-12-20T09:34:44;9.35;;;6.50;;
70953;SDS011;58618;47.490;8.736;2023-12-20T09:37:31;8.70;;;5.63;;
70953;SDS011;58618;47.490;8.736;2023-12-20T09:40:20;9.50;;;6.03;;
70953;SDS011;58618;47.490;8.736;2023-12-20T09:43:08;9.82;;;6.50;;
70953;SDS011;58618;47.490;8.736;2023-12-20T09:45:59;8.90;;;5.85;;
70953;SDS011;58618;47.490;8.736;2023-12-20T09:48:48;8.20;;;5.50;;
70953;SDS011;58618;47.490;8.736;2023-12-20T09:51:36;13.82;;;6.40;;
70953;SDS011;58618;47.490;8.736;2023-12-20T09:54:23;11.03;;;5.93;;
70953;SDS011;58618;47.490;8.736;2023-12-20T09:57:12;9.73;;;6.53;;
70953;SDS011;58618;47.490;8.736;2023-12-20T09:59:59;9.68;;;5.90;;
70953;SDS011;58618;47.490;8.736;2023-12-20T10:02:49;9.32;;;5.57;;
70953;SDS011;58618;47.490;8.736;2023-12-20T10:05:43;8.77;;;6.30;;
70953;SDS011;58618;47.490;8.736;2023-12-20T10:08:31;8.17;;;5.37;;
70953;SDS011;58618;47.490;8.736;2023-12-20T10:11:19;9.65;;;6.47;;
70953;SDS011;58618;47.490;8.736;2023-12-20T10:14:07;10.25;;;6.53;;
70953;SDS011;58618;47.490;8.736;2023-12-20T10:16:57;10.43;;;6.07;;
70953;SDS011;58618;47.490;8.736;2023-12-20T10:19:49;8.55;;;5.60;;
70953;SDS011;58618;47.490;8.736;2023-12-20T10:22:36;8.03;;;5.23;;
70953;SDS011;58618;47.490;8.736;2023-12-20T10:25:24;8.55;;;5.90;;
70953;SDS011;58618;47.490;8.736;2023-12-20T10:28:12;7.82;;;5.18;;
70953;SDS011;58618;47.490;8.736;2023-12-20T10:31:04;8.48;;;5.82;;
70953;SDS011;58618;47.490;8.736;2023-12-20T10:33:52;8.13;;;5.35;;
70953;SDS011;58618;47.490;8.736;2023-12-20T10:36:39;8.70;;;5.53;;
70953;SDS011;58618;47.490;8.736;2023-12-20T10:39:26;8.18;;;5.25;;
70953;SDS011;58618;47.490;8.736;2023-12-20T10:42:14;7.28;;;5.00;;
70953;SDS011;58618;47.490;8.736;2023-12-20T10:45:03;7.28;;;5.03;;
70953;SDS011;58618;47.490;8.736;2023-12-20T10:47:52;8.10;;;4.85;;
70953;SDS011;58618;47.490;8.736;2023-12-20T10:50:40;7.67;;;5.20;;
70953;SDS011;58618;47.490;8.736;2023-12-20T10:53:28;7.47;;;5.00;;
70953;SDS011;58618;47.490;8.736;2023-12-20T10:56:17;7.35;;;4.70;;
70953;SDS011;58618;47.490;8.736;2023-12-20T10:59:05;7.35;;;4.97;;
70953;SDS011;58618;47.490;8.736;2023-12-20T11:01:57;8.50;;;5.03;;
70953;SDS011;58618;47.490;8.736;2023-12-20T11:04:50;7.57;;;5.17;;
70953;SDS011;58618;47.490;8.736;2023-12-20T11:07:43;6.55;;;4.80;;
70953;SDS011;58618;47.490;8.736;2023-12-20T11:10:36;8.27;;;5.75;;
70953;SDS011;58618;47.490;8.736;2023-12-20T11:13:31;8.98;;;5.60;;
70953;SDS011;58618;47.490;8.736;2023-12-20T11:16:21;7.63;;;5.05;;
70953;SDS011;58618;47.490;8.736;2023-12-20T11:19:08;6.87;;;4.90;;
70953;SDS011;58618;47.490;8.736;2023-12-20T11:22:00;7.00;;;5.00;;
70953;SDS011;58618;47.490;8.736;2023-12-20T11:24:48;5.95;;;3.80;;
70953;SDS011;58618;47.490;8.736;2023-12-20T11:27:40;4.75;;;3.20;;
70953;SDS011;58618;47.490;8.736;2023-12-20T11:30:29;4.43;;;2.97;;
70953;SDS011;58618;47.490;8.736;2023-12-20T11:33:29;3.77;;;2.73;;
70953;SDS011;58618;47.490;8.736;2023-12-20T11:36:18;3.55;;;2.60;;
70953;SDS011;58618;47.490;8.736;2023-12-20T11:39:08;4.40;;;3.13;;
70953;SDS011;58618;47.490;8.736;2023-12-20T11:41:56;4.13;;;2.60;;
70953;SDS011;58618;47.490;8.736;2023-12-20T11:44:44;4.40;;;2.85;;
70953;SDS011;58618;47.490;8.736;2023-12-20T11:47:31;4.17;;;2.73;;
70953;SDS011;58618;47.490;8.736;2023-12-20T11:50:19;4.07;;;2.33;;
70953;SDS011;58618;47.490;8.736;2023-12-20T11:53:07;3.00;;;2.20;;
70953;SDS011;58618;47.490;8.736;2023-12-20T11:55:56;3.38;;;2.22;;
70953;SDS011;58618;47.490;8.736;2023-12-20T11:58:43;3.08;;;2.20;;
70953;SDS011;58618;47.490;8.736;2023-12-20T12:01:31;2.90;;;2.10;;
70953;SDS011;58618;47.490;8.736;2023-12-20T12:04:19;2.40;;;1.70;;
70953;SDS011;58618;47.490;8.736;2023-12-20T12:07:06;3.50;;;2.20;;
70953;SDS011;58618;47.490;8.736;2023-12-20T12:09:54;2.33;;;1.85;;
70953;SDS011;58618;47.490;8.736;2023-12-20T12:12:42;2.60;;;2.03;;
70953;SDS011;58618;47.490;8.736;2023-12-20T12:15:30;2.60;;;2.07;;
70953;SDS011;58618;47.490;8.736;2023-12-20T12:18:17;2.05;;;1.67;;
70953;SDS011;58618;47.490;8.736;2023-12-20T12:21:05;2.17;;;1.73;;
70953;SDS011;58618;47.490;8.736;2023-12-20T12:23:52;2.33;;;1.63;;
70953;SDS011;58618;47.490;8.736;2023-12-20T12:26:40;3.67;;;1.67;;
70953;SDS011;58618;47.490;8.736;2023-12-20T12:29:29;4.07;;;1.67;;
70953;SDS011;58618;47.490;8.736;2023-12-20T12:32:16;4.30;;;1.80;;
70953;SDS011;58618;47.490;8.736;2023-12-20T12:35:04;2.08;;;1.23;;
70953;SDS011;58618;47.490;8.736;2023-12-20T12:37:52;2.72;;;1.40;;
70953;SDS011;58618;47.490;8.736;2023-12-20T12:40:39;5.32;;;1.90;;
70953;SDS011;58618;47.490;8.736;2023-12-20T12:43:27;2.07;;;1.40;;
70953;SDS011;58618;47.490;8.736;2023-12-20T12:46:16;2.65;;;1.80;;
70953;SDS011;58618;47.490;8.736;2023-12-20T12:49:04;2.20;;;1.55;;
70953;SDS011;58618;47.490;8.736;2023-12-20T12:51:51;2.58;;;1.67;;
70953;SDS011;58618;47.490;8.736;2023-12-20T12:54:40;2.95;;;1.70;;
70953;SDS011;58618;47.490;8.736;2023-12-20T12:57:28;2.73;;;1.80;;
70953;SDS011;58618;47.490;8.736;2023-12-20T13:00:15;2.72;;;1.70;;
70953;SDS011;58618;47.490;8.736;2023-12-20T13:03:05;3.50;;;1.90;;
70953;SDS011;58618;47.490;8.736;2023-12-20T13:05:53;2.03;;;1.67;;
70953;SDS011;58618;47.490;8.736;2023-12-20T13:08:41;2.70;;;1.73;;
70953;SDS011;58618;47.490;8.736;2023-12-20T13:11:28;3.53;;;1.77;;
70953;SDS011;58618;47.490;8.736;2023-12-20T13:14:17;2.35;;;1.63;;
70953;SDS011;58618;47.490;8.736;2023-12-20T13:17:04;3.25;;;1.40;;
70953;SDS011;58618;47.490;8.736;2023-12-20T13:19:53;2.00;;;1.55;;
70953;SDS011;58618;47.490;8.736;2023-12-20T13:22:40;2.47;;;1.55;;
70953;SDS011;58618;47.490;8.736;2023-12-20T13:25:28;2.63;;;1.50;;
70953;SDS011;58618;47.490;8.736;2023-12-20T13:28:15;2.40;;;1.52;;
70953;SDS011;58618;47.490;8.736;2023-12-20T13:31:03;3.53;;;1.70;;
70953;SDS011;58618;47.490;8.736;2023-12-20T13:33:50;4.10;;;1.65;;
70953;SDS011;58618;47.490;8.736;2023-12-20T13:36:39;2.95;;;1.75;;
70953;SDS011;58618;47.490;8.736;2023-12-20T13:39:26;2.80;;;1.57;;
70953;SDS011;58618;47.490;8.736;2023-12-20T13:42:14;4.18;;;1.92;;
70953;SDS011;58618;47.490;8.736;2023-12-20T13:45:01;2.15;;;1.58;;
70953;SDS011;58618;47.490;8.736;2023-12-20T13:47:50;2.45;;;1.45;;
70953;SDS011;58618;47.490;8.736;2023-12-20T13:50:38;4.45;;;1.77;;
70953;SDS011;58618;47.490;8.736;2023-12-20T13:53:27;1.77;;;1.33;;
70953;SDS011;58618;47.490;8.736;2023-12-20T13:56:14;2.83;;;1.60;;
70953;SDS011;58618;47.490;8.736;2023-12-20T13:59:01;3.42;;;1.67;;
70953;SDS011;58618;47.490;8.736;2023-12-20T14:01:49;2.88;;;1.52;;
70953;SDS011;58618;47.490;8.736;2023-12-20T14:04:36;3.38;;;1.70;;
70953;SDS011;58618;47.490;8.736;2023-12-20T14:07:25;2.80;;;1.80;;
70953;SDS011;58618;47.490;8.736;2023-12-20T14:10:16;4.25;;;1.85;;
70953;SDS011;58618;47.490;8.736;2023-12-20T14:13:04;3.55;;;1.88;;
70953;SDS011;58618;47.490;8.736;2023-12-20T14:15:51;5.07;;;1.73;;
70953;SDS011;58618;47.490;8.736;2023-12-20T14:18:41;2.70;;;1.60;;
70953;SDS011;58618;47.490;8.736;2023-12-20T14:21:28;3.53;;;1.80;;
70953;SDS011;58618;47.490;8.736;2023-12-20T14:24:16;3.42;;;2.10;;
70953;SDS011;58618;47.490;8.736;2023-12-20T14:27:05;2.30;;;1.77;;
70953;SDS011;58618;47.490;8.736;2023-12-20T14:29:55;4.57;;;2.10;;
70953;SDS011;58618;47.490;8.736;2023-12-20T14:32:43;5.68;;;2.30;;
70953;SDS011;58618;47.490;8.736;2023-12-20T14:35:30;5.03;;;2.30;;
70953;SDS011;58618;47.490;8.736;2023-12-20T14:38:18;4.30;;;2.20;;
70953;SDS011;58618;47.490;8.736;2023-12-20T14:41:06;3.17;;;1.85;;
70953;SDS011;58618;47.490;8.736;2023-12-20T14:43:56;5.57;;;2.10;;
70953;SDS011;58618;47.490;8.736;2023-12-20T14:46:45;3.40;;;1.90;;
70953;SDS011;58618;47.490;8.736;2023-12-20T14:49:32;4.40;;;2.27;;
70953;SDS011;58618;47.490;8.736;2023-12-20T14:52:20;3.53;;;2.17;;
70953;SDS011;58618;47.490;8.736;2023-12-20T14:55:08;5.32;;;1.92;;
70953;SDS011;58618;47.490;8.736;2023-12-20T14:57:56;4.70;;;1.95;;
70953;SDS011;58618;47.490;8.736;2023-12-20T15:00:45;4.78;;;1.90;;
70953;SDS011;58618;47.490;8.736;2023-12-20T15:03:32;3.57;;;1.67;;
70953;SDS011;58618;47.490;8.736;2023-12-20T15:06:19;7.50;;;2.00;;
70953;SDS011;58618;47.490;8.736;2023-12-20T15:09:07;4.43;;;1.80;;
70953;SDS011;58618;47.490;8.736;2023-12-20T15:11:55;4.30;;;1.77;;
70953;SDS011;58618;47.490;8.736;2023-12-20T15:14:42;3.33;;;1.73;;
70953;SDS011;58618;47.490;8.736;2023-12-20T15:17:32;5.43;;;1.87;;
70953;SDS011;58618;47.490;8.736;2023-12-20T15:20:19;3.90;;;1.42;;
70953;SDS011;58618;47.490;8.736;2023-12-20T15:23:07;5.07;;;1.40;;
70953;SDS011;58618;47.490;8.736;2023-12-20T15:25:54;3.13;;;1.30;;
70953;SDS011;58618;47.490;8.736;2023-12-20T15:28:42;5.63;;;1.40;;
70953;SDS011;58618;47.490;8.736;2023-12-20T15:31:29;4.97;;;1.77;;
70953;SDS011;58618;47.490;8.736;2023-12-20T15:34:19;5.38;;;1.20;;
70953;SDS011;58618;47.490;8.736;2023-12-20T15:37:07;6.85;;;1.70;;
70953;SDS011;58618;47.490;8.736;2023-12-20T15:39:55;4.03;;;1.30;;
70953;SDS011;58618;47.490;8.736;2023-12-20T15:42:42;5.88;;;1.20;;
70953;SDS011;58618;47.490;8.736;2023-12-20T15:45:30;6.93;;;1.40;;
70953;SDS011;58618;47.490;8.736;2023-12-20T15:48:18;3.78;;;1.33;;
70953;SDS011;58618;47.490;8.736;2023-12-20T15:51:07;6.28;;;1.48;;
70953;SDS011;58618;47.490;8.736;2023-12-20T15:53:55;3.42;;;1.77;;
70953;SDS011;58618;47.490;8.736;2023-12-20T15:56:43;5.93;;;2.70;;
70953;SDS011;58618;47.490;8.736;2023-12-20T15:59:33;4.63;;;1.70;;
70953;SDS011;58618;47.490;8.736;2023-12-20T16:02:21;3.85;;;1.67;;
70953;SDS011;58618;47.490;8.736;2023-12-20T16:05:09;8.75;;;1.83;;
70953;SDS011;58618;47.490;8.736;2023-12-20T16:07:58;6.70;;;1.90;;
70953;SDS011;58618;47.490;8.736;2023-12-20T16:10:45;5.90;;;1.73;;
70953;SDS011;58618;47.490;8.736;2023-12-20T16:13:32;2.73;;;1.30;;
70953;SDS011;58618;47.490;8.736;2023-12-20T16:16:20;4.28;;;1.50;;
70953;SDS011;58618;47.490;8.736;2023-12-20T16:19:07;5.28;;;1.25;;
70953;SDS011;58618;47.490;8.736;2023-12-20T16:21:54;3.47;;;1.20;;
70953;SDS011;58618;47.490;8.736;2023-12-20T16:24:43;6.03;;;1.40;;
70953;SDS011;58618;47.490;8.736;2023-12-20T16:27:30;5.87;;;1.67;;
70953;SDS011;58618;47.490;8.736;2023-12-20T16:30:19;3.78;;;1.10;;
70953;SDS011;58618;47.490;8.736;2023-12-20T16:33:06;4.55;;;1.15;;
70953;SDS011;58618;47.490;8.736;2023-12-20T16:35:55;6.57;;;1.17;;
70953;SDS011;58618;47.490;8.736;2023-12-20T16:38:42;3.33;;;1.25;;
70953;SDS011;58618;47.490;8.736;2023-12-20T16:41:31;3.23;;;0.97;;
70953;SDS011;58618;47.490;8.736;2023-12-20T16:44:18;2.50;;;0.98;;